Time;durP1;ratioP1;P1;durP2;ratioP2;P2;SDS_P1;SDS_P2;PMS_P1;PMS_P2;Temp;Humidity;BMP_temperature;BMP_pressure;BME280_temperature;BME280_humidity;BME280_pressure;Samples;Min_cycle;Max_cycle;Signal;HPM_P1;HPM_P2
2023/01/12 00:01:48;;;;;;;6.63;2.53;;;6.80;99.90;;;;;;5017709;28;20911;-70
2023/01/12 00:04:15;;;;;;;7.37;2.93;;;6.80;99.90;;;;;;5012293;28;20513;-70
2023/01/12 00:06:42;;;;;;;27.07;3.83;;;6.80;99.90;;;;;;5015642;28;20541;-71
2023/01/12 00:09:09;;;;;;;11.73;3.47;;;6.80;99.90;;;;;;5012216;28;20454;-70
2023/01/12 00:11:36;;;;;;;9.13;3.50;;;6.80;99.90;;;;;;5012062;28;20471;-70
2023/01/12 00:14:05;;;;;;;17.00;3.20;;;6.80;99.90;;;;;;5019414;28;20450;-70
2023/01/12 00:16:34;;;;;;;12.50;3.50;;;6.80;99.90;;;;;;5018384;28;20458;-70
2023/01/12 00:19:01;;;;;;;16.70;3.03;;;6.80;99.90;;;;;;5010777;28;20546;-70
2023/01/12 00:21:27;;;;;;;7.53;2.70;;;6.80;99.90;;;;;;5015989;28;21027;-70
2023/01/12 00:23:54;;;;;;;14.67;3.83;;;6.80;99.90;;;;;;5015018;28;20529;-69
2023/01/12 00:26:21;;;;;;;11.40;2.93;;;6.80;99.90;;;;;;5015036;28;20509;-70
2023/01/12 00:28:47;;;;;;;15.53;2.80;;;6.80;99.90;;;;;;5013348;28;20941;-69
2023/01/12 00:31:15;;;;;;;16.90;3.10;;;6.90;99.90;;;;;;5017190;28;20524;-70
2023/01/12 00:33:42;;;;;;;13.50;3.37;;;6.90;99.90;;;;;;5018756;28;20450;-69
2023/01/12 00:36:12;;;;;;;12.30;3.33;;;6.90;99.90;;;;;;5014673;28;20884;-69
2023/01/12 00:38:39;;;;;;;13.20;3.67;;;6.90;99.90;;;;;;5015739;28;20454;-69
2023/01/12 00:41:06;;;;;;;11.43;2.80;;;6.90;99.90;;;;;;5011695;28;20471;-69
2023/01/12 00:46:18;;;;;;;14.80;3.10;;;6.90;99.90;;;;;;5017569;28;20802;-69
2023/01/12 00:48:45;;;;;;;13.07;3.77;;;6.90;99.90;;;;;;5030451;28;20454;-69
2023/01/12 00:51:12;;;;;;;24.77;3.37;;;6.90;99.90;;;;;;5022833;28;20811;-70
2023/01/12 00:53:38;;;;;;;11.07;3.37;;;6.90;99.90;;;;;;5022995;28;20454;-71
2023/01/12 00:56:06;;;;;;;17.93;3.13;;;7.00;99.90;;;;;;5019455;28;20484;-69
2023/01/12 00:58:32;;;;;;;14.47;3.37;;;7.00;99.90;;;;;;5020590;28;20458;-69
2023/01/12 01:01:05;;;;;;;11.73;3.20;;;7.10;99.90;;;;;;5015848;28;20474;-70
2023/01/12 01:03:34;;;;;;;10.50;3.10;;;7.10;99.90;;;;;;5011364;28;20451;-70
2023/01/12 01:06:05;;;;;;;12.93;3.20;;;7.10;99.90;;;;;;5017219;28;20508;-70
2023/01/12 01:08:32;;;;;;;13.30;3.10;;;7.10;99.90;;;;;;5018791;28;20993;-70
2023/01/12 01:11:02;;;;;;;13.70;3.17;;;7.10;99.90;;;;;;5014978;28;20478;-70
2023/01/12 01:13:29;;;;;;;11.13;3.13;;;7.20;99.90;;;;;;5011890;28;20450;-70
2023/01/12 01:15:59;;;;;;;21.07;3.33;;;7.30;99.90;;;;;;5014064;28;20450;-70
2023/01/12 01:18:25;;;;;;;8.60;2.87;;;7.30;99.90;;;;;;5018398;28;20950;-70
2023/01/12 01:20:53;;;;;;;15.67;3.13;;;7.50;99.90;;;;;;5013008;28;20884;-70
2023/01/12 01:23:20;;;;;;;15.27;2.87;;;7.50;99.90;;;;;;5014428;28;20450;-70
2023/01/12 01:25:47;;;;;;;9.33;2.97;;;7.50;99.90;;;;;;5010915;28;20501;-70
2023/01/12 01:28:14;;;;;;;10.47;2.73;;;7.50;99.90;;;;;;5026097;28;20481;-70
2023/01/12 01:30:40;;;;;;;14.20;3.60;;;7.50;99.90;;;;;;5021282;28;20895;-70
2023/01/12 01:33:07;;;;;;;12.23;3.73;;;7.50;99.90;;;;;;5022272;28;20512;-70
2023/01/12 01:35:35;;;;;;;18.33;3.07;;;7.40;99.90;;;;;;5015000;28;20942;-70
2023/01/12 01:38:03;;;;;;;16.23;3.23;;;7.40;99.90;;;;;;5017377;28;20512;-70
2023/01/12 01:40:30;;;;;;;10.80;2.87;;;7.40;99.90;;;;;;5014780;28;20573;-70
2023/01/12 01:42:57;;;;;;;17.67;4.27;;;7.40;99.90;;;;;;5014584;28;21048;-70
2023/01/12 01:45:24;;;;;;;9.03;2.33;;;7.40;99.90;;;;;;5020183;28;20458;-70
2023/01/12 01:47:55;;;;;;;16.53;2.80;;;7.40;99.90;;;;;;5019337;28;20527;-70
2023/01/12 01:50:27;;;;;;;21.53;3.47;;;7.40;99.90;;;;;;5019999;28;21019;-70
2023/01/12 01:52:57;;;;;;;14.70;3.00;;;7.30;99.90;;;;;;5016169;28;20473;-70
2023/01/12 01:55:29;;;;;;;7.60;3.07;;;7.40;99.90;;;;;;5014384;28;20462;-70
2023/01/12 01:58:01;;;;;;;18.30;4.00;;;7.30;99.90;;;;;;5016442;28;20461;-69
2023/01/12 02:00:28;;;;;;;12.60;3.03;;;7.30;99.90;;;;;;5014654;28;20532;-70
2023/01/12 02:02:56;;;;;;;14.30;3.23;;;7.30;99.90;;;;;;5018802;28;20573;-70
2023/01/12 02:05:27;;;;;;;15.33;3.03;;;7.30;99.90;;;;;;5014853;28;20973;-69
2023/01/12 02:07:55;;;;;;;12.17;3.73;;;7.30;99.90;;;;;;5015765;28;20577;-70
2023/01/12 02:10:22;;;;;;;8.10;3.47;;;7.30;99.90;;;;;;5022682;28;20477;-70
2023/01/12 02:18:30;;;;;;;17.40;2.80;;;7.20;99.90;;;;;;5015896;28;20442;-70
2023/01/12 02:21:12;;;;;;;19.77;3.50;;;7.20;99.90;;;;;;5017732;28;20848;-70
2023/01/12 02:24:14;;;;;;;18.80;2.87;;;7.10;99.90;;;;;;5017495;28;20458;-70
2023/01/12 02:27:17;;;;;;;7.87;3.00;;;7.10;99.90;;;;;;5014240;28;20454;-70
2023/01/12 02:30:16;;;;;;;11.40;2.93;;;7.00;99.90;;;;;;5022353;28;20457;-70
2023/01/12 02:32:52;;;;;;;10.23;3.17;;;7.10;99.90;;;;;;5021957;28;20446;-70
2023/01/12 02:35:26;;;;;;;19.37;3.20;;;7.10;99.90;;;;;;5014963;28;20524;-70
2023/01/12 02:38:00;;;;;;;9.53;2.93;;;7.10;99.90;;;;;;5015252;28;20454;-70
2023/01/12 02:40:36;;;;;;;23.33;4.63;;;7.10;99.90;;;;;;5013337;28;20974;-70
2023/01/12 02:43:11;;;;;;;8.63;2.90;;;7.10;99.90;;;;;;5015543;28;20453;-70
2023/01/12 02:45:46;;;;;;;14.53;3.20;;;7.10;99.90;;;;;;5013888;28;20776;-70
2023/01/12 02:48:21;;;;;;;11.13;3.57;;;7.10;99.90;;;;;;5015050;28;20489;-70
2023/01/12 02:50:55;;;;;;;16.83;5.07;;;7.00;99.90;;;;;;5013469;28;20474;-70
2023/01/12 02:53:27;;;;;;;14.00;4.20;;;7.00;99.90;;;;;;5013365;28;20450;-70
2023/01/12 02:55:54;;;;;;;11.40;3.23;;;6.90;99.90;;;;;;5015220;28;20450;-70
2023/01/12 02:58:24;;;;;;;11.23;3.80;;;6.90;99.90;;;;;;5014868;28;20451;-69
2023/01/12 03:00:54;;;;;;;19.53;4.20;;;7.00;99.90;;;;;;5013067;28;20962;-70
2023/01/12 03:03:24;;;;;;;18.50;3.63;;;6.90;99.90;;;;;;5015560;28;20455;-70
2023/01/12 03:05:51;;;;;;;10.80;3.10;;;7.00;99.90;;;;;;5016193;28;20462;-70
2023/01/12 03:08:22;;;;;;;14.60;4.27;;;7.00;99.90;;;;;;5014519;28;20581;-70
2023/01/12 03:10:58;;;;;;;18.33;4.07;;;7.00;99.90;;;;;;5015372;28;20516;-70
2023/01/12 03:13:27;;;;;;;11.93;3.50;;;7.00;99.90;;;;;;5013223;28;20454;-70
2023/01/12 03:15:56;;;;;;;20.20;4.27;;;7.00;99.90;;;;;;5012129;28;20528;-69
2023/01/12 03:18:30;;;;;;;8.87;3.60;;;7.00;99.90;;;;;;5015173;28;20451;-70
2023/01/12 03:21:01;;;;;;;15.57;3.43;;;7.00;99.90;;;;;;5012999;28;20474;-70
2023/01/12 03:23:33;;;;;;;19.10;3.40;;;7.00;99.90;;;;;;5016825;28;20451;-70
2023/01/12 03:26:02;;;;;;;10.00;3.23;;;7.00;99.90;;;;;;5012964;28;20454;-70
2023/01/12 03:28:33;;;;;;;15.60;5.50;;;7.00;99.90;;;;;;5014348;28;20544;-70
2023/01/12 03:31:06;;;;;;;13.63;3.53;;;7.00;99.90;;;;;;5013869;28;20474;-70
2023/01/12 03:33:35;;;;;;;15.73;3.90;;;7.00;99.90;;;;;;5016973;28;20449;-70
2023/01/12 03:36:12;;;;;;;14.87;3.67;;;7.10;99.90;;;;;;5015778;28;20482;-69
2023/01/12 03:38:46;;;;;;;9.13;3.17;;;7.10;99.90;;;;;;5024644;28;21278;-70
2023/01/12 03:41:20;;;;;;;8.93;2.87;;;7.10;99.90;;;;;;5012932;28;20459;-70
2023/01/12 03:43:50;;;;;;;11.97;3.10;;;7.10;99.90;;;;;;5012853;28;20459;-70
2023/01/12 03:46:22;;;;;;;9.03;3.80;;;7.10;99.90;;;;;;5017126;28;20454;-70
2023/01/12 03:48:54;;;;;;;9.97;2.70;;;7.10;99.90;;;;;;5022903;28;20511;-70
2023/01/12 03:51:24;;;;;;;10.83;3.00;;;7.20;99.90;;;;;;5012733;28;20467;-70
2023/01/12 03:53:52;;;;;;;11.67;2.50;;;7.10;99.90;;;;;;5012513;28;20497;-70
2023/01/12 03:56:23;;;;;;;7.40;2.40;;;7.20;99.90;;;;;;5012282;28;21000;-70
2023/01/12 03:58:50;;;;;;;20.63;2.87;;;7.20;99.90;;;;;;5020737;28;20445;-70
2023/01/12 04:01:17;;;;;;;12.80;2.80;;;7.20;99.90;;;;;;5015202;28;20540;-70
2023/01/12 04:03:43;;;;;;;5.33;2.47;;;7.30;99.90;;;;;;5016221;28;20451;-70
2023/01/12 04:06:12;;;;;;;11.00;2.70;;;7.30;99.90;;;;;;5020255;28;20447;-69
2023/01/12 04:08:38;;;;;;;10.83;3.50;;;7.30;99.90;;;;;;5019188;28;20543;-70
2023/01/12 04:13:47;;;;;;;9.70;2.50;;;7.40;99.90;;;;;;5019992;28;20438;-70
2023/01/12 04:16:13;;;;;;;12.70;2.37;;;7.40;99.90;;;;;;5021016;28;20447;-70
2023/01/12 04:18:40;;;;;;;11.90;2.17;;;7.40;99.90;;;;;;5022659;28;20883;-70
2023/01/12 04:22:41;;;;;;;10.67;2.63;;;7.40;99.90;;;;;;5011792;28;20506;-70
2023/01/12 04:23:54;;;;;;;10.50;3.13;;;7.40;99.90;;;;;;5015829;28;20943;-70
2023/01/12 04:26:20;;;;;;;13.10;2.40;;;7.50;99.90;;;;;;5015263;28;20455;-70
2023/01/12 04:28:47;;;;;;;6.90;2.60;;;7.50;99.90;;;;;;5014819;28;20494;-70
2023/01/12 04:31:14;;;;;;;11.37;3.00;;;7.50;99.90;;;;;;5015801;28;21010;-70
2023/01/12 04:33:41;;;;;;;9.37;2.67;;;7.50;99.90;;;;;;5012267;28;20545;-70
2023/01/12 04:36:10;;;;;;;10.93;3.03;;;7.50;99.90;;;;;;5014177;28;21237;-70
2023/01/12 04:38:37;;;;;;;7.63;2.83;;;7.50;99.90;;;;;;5011596;28;20473;-70
2023/01/12 04:41:05;;;;;;;14.00;2.67;;;7.50;99.90;;;;;;5011650;28;20470;-70
2023/01/12 04:43:32;;;;;;;4.87;2.17;;;7.40;99.90;;;;;;5012865;28;20450;-70
2023/01/12 04:46:03;;;;;;;11.20;2.40;;;7.40;99.90;;;;;;5015898;28;20605;-70
2023/01/12 04:48:30;;;;;;;10.23;2.67;;;7.40;99.90;;;;;;5011667;28;20479;-70
2023/01/12 04:50:59;;;;;;;8.30;2.37;;;7.40;99.90;;;;;;5016324;28;20473;-70
2023/01/12 04:53:26;;;;;;;8.80;2.63;;;7.40;99.90;;;;;;5011804;28;20454;-70
2023/01/12 04:55:52;;;;;;;4.70;2.10;;;7.40;99.90;;;;;;5013490;28;20509;-70
2023/01/12 04:58:20;;;;;;;8.50;2.40;;;7.50;99.90;;;;;;5017949;28;20455;-70
2023/01/12 05:00:47;;;;;;;6.43;2.00;;;7.50;99.90;;;;;;5011139;28;20974;-70
2023/01/12 05:03:15;;;;;;;7.70;2.40;;;7.50;99.90;;;;;;5019116;28;20455;-70
2023/01/12 05:05:42;;;;;;;6.33;2.20;;;7.60;99.90;;;;;;5015811;28;20467;-70
2023/01/12 05:10:56;;;;;;;10.43;2.17;;;7.60;99.90;;;;;;5014977;28;20682;-70
2023/01/12 05:13:25;;;;;;;9.33;1.87;;;7.70;99.90;;;;;;5023737;28;20450;-70
2023/01/12 05:15:52;;;;;;;5.83;2.17;;;7.70;99.90;;;;;;5019390;28;20459;-70
2023/01/12 05:18:19;;;;;;;2.50;1.70;;;7.70;99.90;;;;;;5015028;28;20505;-69
2023/01/12 05:20:45;;;;;;;3.77;1.80;;;7.70;99.90;;;;;;5018520;28;20516;-70
2023/01/12 05:23:12;;;;;;;6.47;1.97;;;7.70;99.90;;;;;;5022151;28;20512;-70
2023/01/12 05:25:39;;;;;;;3.33;1.97;;;7.70;99.90;;;;;;5023753;28;20561;-70
2023/01/12 05:28:05;;;;;;;4.80;1.63;;;7.70;99.90;;;;;;5028268;28;21004;-69
2023/01/12 05:30:33;;;;;;;4.40;2.00;;;7.70;99.90;;;;;;5027458;28;20479;-70
2023/01/12 05:33:00;;;;;;;8.10;2.33;;;7.70;99.90;;;;;;5016194;28;20512;-69
2023/01/12 05:35:27;;;;;;;5.73;1.63;;;7.70;99.90;;;;;;5020778;28;20458;-69
2023/01/12 05:37:54;;;;;;;3.47;2.10;;;7.70;99.90;;;;;;5016094;28;20469;-69
2023/01/12 05:40:21;;;;;;;5.77;2.00;;;7.70;99.90;;;;;;5017019;28;20525;-69
2023/01/12 05:45:36;;;;;;;4.53;2.00;;;7.70;99.90;;;;;;5019964;28;20441;-69
2023/01/12 05:48:03;;;;;;;5.33;1.80;;;7.60;99.90;;;;;;5020028;28;20453;-70
2023/01/12 05:50:29;;;;;;;9.50;2.40;;;7.60;99.90;;;;;;5016205;28;20927;-69
2023/01/12 05:52:56;;;;;;;1.33;1.23;;;7.60;99.90;;;;;;5021378;28;20470;-70
2023/01/12 05:55:22;;;;;;;3.67;1.80;;;7.70;99.90;;;;;;5015760;28;20463;-69
2023/01/12 05:57:49;;;;;;;8.83;2.07;;;7.70;99.90;;;;;;5028452;28;20453;-70
2023/01/12 06:00:17;;;;;;;5.90;2.27;;;7.80;99.90;;;;;;5028430;28;20510;-69
2023/01/12 06:02:45;;;;;;;8.93;1.97;;;7.90;99.90;;;;;;5016907;28;20521;-69
2023/01/12 06:05:12;;;;;;;9.03;2.47;;;7.90;99.90;;;;;;5014508;28;20504;-69
2023/01/12 06:07:39;;;;;;;7.10;2.40;;;7.90;99.90;;;;;;5017402;28;20461;-69
2023/01/12 06:10:07;;;;;;;15.10;3.07;;;7.90;99.90;;;;;;5021308;28;20561;-69
2023/01/12 06:15:14;;;;;;;3.17;1.80;;;7.80;99.90;;;;;;5012263;28;20474;-69
2023/01/12 06:17:41;;;;;;;7.83;2.17;;;7.80;99.90;;;;;;5019128;28;20459;-69
2023/01/12 06:20:13;;;;;;;7.00;2.33;;;7.80;99.90;;;;;;5019618;28;20910;-69
2023/01/12 06:22:40;;;;;;;8.43;2.60;;;7.80;99.90;;;;;;5017198;28;20957;-69
2023/01/12 06:25:08;;;;;;;10.20;3.00;;;7.80;99.90;;;;;;5021630;28;20453;-70
2023/01/12 06:27:37;;;;;;;9.57;2.90;;;7.70;99.90;;;;;;5021864;28;20505;-69
2023/01/12 06:30:04;;;;;;;4.50;2.90;;;7.70;99.90;;;;;;5026157;28;20492;-69
2023/01/12 06:32:31;;;;;;;10.23;3.60;;;7.70;99.90;;;;;;5025776;28;20512;-69
2023/01/12 06:34:58;;;;;;;6.97;2.80;;;7.70;99.90;;;;;;5027253;28;20446;-69
2023/01/12 06:37:26;;;;;;;11.93;3.73;;;7.70;99.90;;;;;;5031129;28;20816;-69
2023/01/12 06:39:52;;;;;;;6.10;2.47;;;7.70;99.90;;;;;;5016216;28;20920;-69
2023/01/12 06:42:28;;;;;;;9.23;3.50;;;7.70;99.90;;;;;;5015601;28;20454;-69
2023/01/12 06:44:55;;;;;;;6.70;2.60;;;7.60;99.90;;;;;;5017074;28;20466;-69
2023/01/12 06:47:22;;;;;;;7.70;2.37;;;7.60;99.90;;;;;;5016883;28;20451;-69
2023/01/12 06:49:50;;;;;;;6.83;2.70;;;7.50;99.90;;;;;;5017680;28;20498;-70
2023/01/12 06:52:18;;;;;;;6.50;2.20;;;7.60;99.90;;;;;;5021593;28;20458;-69
2023/01/12 06:54:46;;;;;;;7.03;2.40;;;7.50;99.90;;;;;;5020761;28;20513;-70
2023/01/12 06:57:13;;;;;;;7.47;2.97;;;7.50;99.90;;;;;;5013322;28;20451;-70
2023/01/12 06:59:40;;;;;;;8.20;2.57;;;7.50;99.90;;;;;;5013088;28;20994;-69
2023/01/12 07:02:11;;;;;;;6.13;2.17;;;7.40;99.90;;;;;;5024148;28;20486;-71
2023/01/12 07:04:37;;;;;;;5.13;2.30;;;7.40;99.90;;;;;;5013107;28;20961;-71
2023/01/12 07:07:04;;;;;;;9.90;3.13;;;7.40;99.90;;;;;;5013151;28;20455;-71
2023/01/12 07:09:30;;;;;;;11.03;2.70;;;7.40;99.90;;;;;;5017185;28;21007;-71
2023/01/12 07:11:58;;;;;;;5.77;2.20;;;7.40;99.90;;;;;;5013391;28;20540;-71
2023/01/12 07:14:25;;;;;;;6.10;2.53;;;7.40;99.90;;;;;;5012619;28;20509;-71
2023/01/12 07:16:52;;;;;;;8.63;2.37;;;7.30;99.90;;;;;;5016750;28;20454;-70
2023/01/12 07:19:19;;;;;;;8.00;2.27;;;7.40;99.90;;;;;;5015575;28;20470;-70
2023/01/12 07:21:46;;;;;;;15.90;2.50;;;7.40;99.90;;;;;;5013199;28;20479;-71
2023/01/12 07:24:12;;;;;;;12.20;2.93;;;7.30;99.90;;;;;;5018424;28;20501;-71
2023/01/12 07:26:39;;;;;;;9.67;2.00;;;7.30;99.90;;;;;;5020697;28;20528;-71
2023/01/12 07:29:07;;;;;;;5.13;1.83;;;7.30;99.90;;;;;;5021039;28;20481;-71
2023/01/12 07:31:33;;;;;;;10.63;2.13;;;7.40;99.90;;;;;;5013371;28;20474;-71
2023/01/12 07:34:00;;;;;;;6.60;1.70;;;7.30;99.90;;;;;;5021713;28;20450;-71
2023/01/12 07:36:27;;;;;;;11.00;2.60;;;7.30;99.90;;;;;;5012757;28;20992;-71
2023/01/12 07:38:53;;;;;;;4.17;2.10;;;7.30;99.90;;;;;;5014978;28;20455;-71
2023/01/12 07:44:04;;;;;;;6.37;2.10;;;7.30;99.90;;;;;;5020591;28;20530;-71
2023/01/12 07:46:33;;;;;;;6.57;2.97;;;7.30;99.90;;;;;;5013467;28;20455;-70
2023/01/12 07:49:00;;;;;;;4.30;1.67;;;7.40;99.90;;;;;;5015443;28;21013;-70
2023/01/12 07:51:27;;;;;;;10.40;2.23;;;7.40;99.90;;;;;;5016602;28;20465;-71
2023/01/12 07:53:53;;;;;;;6.63;2.00;;;7.40;99.90;;;;;;5027932;28;20933;-71
2023/01/12 07:56:20;;;;;;;3.30;1.90;;;7.40;99.90;;;;;;5013383;28;20943;-70
2023/01/12 07:58:47;;;;;;;7.07;1.50;;;7.40;99.90;;;;;;5017106;28;20509;-71
2023/01/12 08:01:14;;;;;;;8.13;1.90;;;7.40;99.90;;;;;;5011437;28;20467;-71
2023/01/12 08:03:42;;;;;;;4.33;1.50;;;7.50;99.90;;;;;;5017452;28;20441;-70
2023/01/12 08:06:09;;;;;;;5.10;1.63;;;7.50;99.90;;;;;;5015571;28;20447;-71
2023/01/12 08:08:36;;;;;;;2.50;1.47;;;7.50;99.90;;;;;;5029769;28;20458;-71
2023/01/12 08:11:02;;;;;;;3.83;1.37;;;7.50;99.90;;;;;;5026842;28;20474;-71
2023/01/12 08:13:29;;;;;;;6.20;1.70;;;7.50;99.90;;;;;;5020393;28;20446;-71
2023/01/12 08:16:01;;;;;;;6.00;1.60;;;7.50;99.90;;;;;;5023420;28;20458;-70
2023/01/12 08:18:32;;;;;;;3.30;1.40;;;7.60;99.90;;;;;;5023138;28;20524;-69
2023/01/12 08:21:06;;;;;;;3.50;1.40;;;7.60;99.90;;;;;;5030259;28;20516;-70
2023/01/12 08:23:37;;;;;;;1.60;1.50;;;7.50;99.90;;;;;;5024871;28;20865;-70
2023/01/12 08:26:11;;;;;;;7.00;1.73;;;7.50;99.90;;;;;;5025385;28;20938;-70
2023/01/12 08:28:43;;;;;;;2.60;1.40;;;7.50;99.90;;;;;;5021205;28;20835;-70
2023/01/12 08:31:12;;;;;;;2.67;1.90;;;7.50;99.90;;;;;;5027463;28;20473;-70
2023/01/12 08:33:40;;;;;;;2.13;1.43;;;7.50;99.90;;;;;;5024863;28;20464;-70
2023/01/12 08:36:10;;;;;;;5.40;1.57;;;7.50;99.90;;;;;;5026710;28;20524;-70
2023/01/12 08:38:38;;;;;;;4.00;1.40;;;7.50;99.90;;;;;;5022232;28;20513;-70
2023/01/12 08:44:01;;;;;;;4.73;1.53;;;7.50;99.90;;;;;;5017606;28;20445;-69
2023/01/12 08:46:28;;;;;;;2.90;1.30;;;7.60;99.90;;;;;;5027428;28;20447;-69
2023/01/12 08:48:55;;;;;;;4.93;1.43;;;7.60;99.90;;;;;;5025857;28;20450;-70
2023/01/12 08:51:22;;;;;;;3.43;1.77;;;7.60;99.90;;;;;;5018866;28;21064;-69
2023/01/12 08:53:49;;;;;;;3.20;1.50;;;7.70;99.90;;;;;;5015574;28;20455;-69
2023/01/12 08:56:16;;;;;;;3.33;1.50;;;7.70;99.90;;;;;;5013765;28;20450;-69
2023/01/12 08:58:43;;;;;;;2.30;1.43;;;7.70;99.90;;;;;;5027897;28;20516;-69
2023/01/12 09:01:10;;;;;;;2.27;1.30;;;7.70;99.90;;;;;;5025939;28;20474;-71
2023/01/12 09:03:38;;;;;;;4.70;2.07;;;7.70;99.90;;;;;;5018156;28;20459;-70
2023/01/12 09:06:13;;;;;;;5.27;1.50;;;7.80;99.90;;;;;;5015291;28;20451;-70
2023/01/12 09:08:41;;;;;;;2.97;1.60;;;7.70;99.90;;;;;;5016965;28;20456;-70
2023/01/12 09:11:08;;;;;;;3.70;1.40;;;7.80;99.90;;;;;;5026783;28;20497;-70
2023/01/12 09:13:35;;;;;;;1.40;1.30;;;7.80;99.90;;;;;;5021414;28;20455;-70
2023/01/12 09:16:04;;;;;;;4.87;1.50;;;7.80;99.90;;;;;;5021026;28;20832;-70
2023/01/12 09:18:30;;;;;;;1.87;1.20;;;7.80;99.90;;;;;;5018530;28;20459;-70
2023/01/12 09:21:02;;;;;;;1.30;1.20;;;7.80;99.90;;;;;;5024930;28;20478;-70
2023/01/12 09:23:28;;;;;;;1.27;1.17;;;7.80;99.90;;;;;;5024574;28;20451;-70
2023/01/12 09:25:56;;;;;;;1.30;1.20;;;7.90;99.90;;;;;;5023727;28;20495;-70
2023/01/12 09:28:23;;;;;;;1.13;1.03;;;7.90;99.90;;;;;;5015260;28;20513;-71
2023/01/12 09:30:50;;;;;;;3.63;1.30;;;7.90;99.90;;;;;;5021866;28;20920;-71
2023/01/12 09:33:16;;;;;;;1.70;1.60;;;7.90;99.90;;;;;;5026323;28;20454;-72
2023/01/12 09:35:44;;;;;;;1.30;1.20;;;7.90;99.90;;;;;;5026808;28;21022;-72
2023/01/12 09:38:11;;;;;;;3.93;1.10;;;7.90;99.90;;;;;;5029067;28;20464;-71
2023/01/12 09:40:42;;;;;;;3.33;1.27;;;8.00;99.90;;;;;;5020776;28;20994;-71
2023/01/12 09:48:41;;;;;;;1.77;1.17;;;8.00;99.90;;;;;;5021802;28;20440;-71
2023/01/12 09:51:12;;;;;;;3.83;1.33;;;8.10;99.90;;;;;;5023434;28;21028;-70
2023/01/12 09:53:41;;;;;;;2.97;1.83;;;8.10;99.90;;;;;;5021658;28;20459;-70
2023/01/12 09:56:15;;;;;;;2.17;1.10;;;8.10;99.90;;;;;;5028591;28;20535;-70
2023/01/12 09:59:04;;;;;;;9.23;1.67;;;8.10;99.90;;;;;;5027556;28;20962;-71
2023/01/12 10:01:31;;;;;;;1.70;1.40;;;8.10;99.90;;;;;;5026094;28;20478;-71
2023/01/12 10:04:01;;;;;;;1.20;1.10;;;8.10;99.90;;;;;;5017847;28;20951;-71
2023/01/12 10:06:28;;;;;;;2.00;1.30;;;8.20;99.90;;;;;;5024228;28;20459;-71
2023/01/12 10:08:57;;;;;;;2.13;1.10;;;8.20;99.90;;;;;;5029328;28;20568;-71
2023/01/12 10:11:29;;;;;;;1.30;1.20;;;8.20;99.90;;;;;;5023309;28;20604;-71
2023/01/12 10:14:27;;;;;;;1.43;1.33;;;8.20;99.90;;;;;;5019797;28;20875;-71
2023/01/12 10:17:07;;;;;;;2.80;1.10;;;8.20;99.90;;;;;;5021117;28;20985;-71
2023/01/12 10:19:42;;;;;;;3.17;1.40;;;8.20;99.90;;;;;;5023452;28;20454;-71
2023/01/12 10:22:35;;;;;;;4.00;1.30;;;8.30;99.90;;;;;;5028506;28;20997;-72
2023/01/12 10:25:05;;;;;;;1.83;1.40;;;8.30;99.90;;;;;;5023867;28;20950;-72
2023/01/12 10:27:34;;;;;;;1.30;1.10;;;8.40;99.90;;;;;;5027977;28;20458;-73
2023/01/12 10:30:10;;;;;;;2.37;1.30;;;8.40;99.90;;;;;;5027223;28;20481;-73
2023/01/12 10:32:37;;;;;;;1.43;1.33;;;8.40;99.90;;;;;;5023717;28;20511;-71
2023/01/12 10:35:05;;;;;;;1.97;1.30;;;8.40;99.90;;;;;;5029802;28;20449;-71
2023/01/12 10:37:42;;;;;;;1.77;1.37;;;8.40;99.90;;;;;;5025158;28;20450;-71
2023/01/12 10:40:23;;;;;;;1.47;1.37;;;8.40;99.90;;;;;;5019887;28;21064;-71
2023/01/12 10:45:40;;;;;;;1.70;1.53;;;8.40;99.90;;;;;;5030864;28;20449;-71
2023/01/12 10:48:17;;;;;;;1.27;1.13;;;8.50;99.90;;;;;;5026718;28;20485;-71
2023/01/12 10:50:55;;;;;;;2.10;1.90;;;8.50;99.90;;;;;;5020014;28;20998;-71
2023/01/12 10:53:26;;;;;;;2.83;1.30;;;8.50;99.90;;;;;;5014908;28;20470;-72
2023/01/12 10:55:53;;;;;;;7.50;1.60;;;8.50;99.90;;;;;;5026226;28;20458;-73
2023/01/12 10:58:22;;;;;;;1.40;1.30;;;8.50;99.90;;;;;;5028549;28;20453;-71
2023/01/12 11:00:52;;;;;;;5.33;2.17;;;8.50;99.90;;;;;;5027124;28;20474;-70
2023/01/12 11:03:40;;;;;;;1.70;1.60;;;8.50;99.90;;;;;;5018031;28;20462;-70
2023/01/12 11:06:24;;;;;;;1.63;1.53;;;8.50;99.90;;;;;;5025410;28;20449;-72
2023/01/12 11:08:51;;;;;;;2.57;1.30;;;8.50;99.90;;;;;;5030194;28;20512;-71
2023/01/12 11:11:24;;;;;;;3.23;1.20;;;8.50;99.90;;;;;;5023896;28;20493;-71
2023/01/12 11:13:54;;;;;;;5.50;1.70;;;8.50;99.90;;;;;;5018665;28;20454;-71
2023/01/12 11:16:24;;;;;;;2.23;1.60;;;8.60;99.90;;;;;;5024000;28;20458;-71
2023/01/12 11:19:03;;;;;;;2.53;1.40;;;8.60;99.90;;;;;;5029583;28;20465;-71
2023/01/12 11:21:34;;;;;;;3.70;1.60;;;8.60;99.90;;;;;;5023559;28;20478;-71
2023/01/12 11:24:05;;;;;;;5.63;1.73;;;8.60;99.90;;;;;;5024782;28;20455;-71
2023/01/12 11:26:39;;;;;;;1.97;1.30;;;8.60;99.90;;;;;;5015269;28;20679;-71
2023/01/12 11:29:33;;;;;;;4.23;1.53;;;8.70;99.90;;;;;;5027002;28;20457;-71
2023/01/12 11:32:06;;;;;;;2.90;1.60;;;8.70;99.90;;;;;;5021782;28;20469;-71
2023/01/12 11:34:38;;;;;;;4.03;1.67;;;8.70;99.90;;;;;;5020211;28;20666;-71
2023/01/12 11:37:11;;;;;;;7.90;1.53;;;8.80;99.90;;;;;;5017924;28;20461;-71
2023/01/12 11:39:39;;;;;;;3.83;1.20;;;8.80;99.90;;;;;;5023939;28;20446;-71
2023/01/12 11:45:02;;;;;;;2.03;1.30;;;8.80;99.90;;;;;;5023946;28;20445;-71
2023/01/12 11:47:36;;;;;;;1.53;1.43;;;8.80;99.90;;;;;;5020077;28;20457;-71
2023/01/12 11:50:07;;;;;;;2.27;1.30;;;8.80;99.90;;;;;;5020216;28;20912;-71
2023/01/12 11:52:34;;;;;;;2.17;1.23;;;8.90;99.90;;;;;;5021449;28;20877;-71
2023/01/12 11:55:01;;;;;;;5.90;1.53;;;8.90;99.90;;;;;;5026923;28;20453;-71
2023/01/12 11:57:42;;;;;;;1.83;1.10;;;8.90;99.90;;;;;;5024252;28;20807;-71
2023/01/12 12:00:24;;;;;;;1.83;1.37;;;8.90;99.90;;;;;;5017366;28;20549;-71
2023/01/12 12:03:06;;;;;;;1.27;1.17;;;8.90;99.90;;;;;;5023137;28;20503;-71
2023/01/12 12:05:43;;;;;;;1.83;1.00;;;8.90;99.90;;;;;;5027104;28;20822;-72
2023/01/12 12:08:20;;;;;;;1.20;1.10;;;8.90;99.90;;;;;;5024802;28;20454;-71
2023/01/12 12:10:53;;;;;;;1.53;1.10;;;8.90;99.90;;;;;;5021177;28;20544;-71
2023/01/12 12:13:30;;;;;;;1.57;1.33;;;8.90;99.90;;;;;;5015129;28;20463;-71
2023/01/12 12:16:17;;;;;;;2.80;1.20;;;9.00;99.90;;;;;;5024626;28;20458;-71
2023/01/12 12:18:56;;;;;;;1.30;1.10;;;9.00;99.90;;;;;;5024929;28;20466;-71
2023/01/12 12:21:46;;;;;;;2.00;1.13;;;9.00;99.90;;;;;;5020609;28;20520;-71
2023/01/12 12:24:37;;;;;;;1.47;1.37;;;9.00;99.90;;;;;;5029028;28;20446;-71
2023/01/12 12:27:12;;;;;;;1.90;1.20;;;9.00;99.90;;;;;;5019530;28;20768;-72
2023/01/12 12:30:00;;;;;;;1.90;1.30;;;9.00;99.90;;;;;;5026300;28;20846;-72
2023/01/12 12:32:34;;;;;;;1.50;1.40;;;9.00;99.90;;;;;;5021952;28;20954;-71
2023/01/12 12:35:17;;;;;;;5.20;1.20;;;9.00;99.90;;;;;;5017017;28;20459;-72
2023/01/12 12:37:53;;;;;;;4.73;1.17;;;9.00;99.90;;;;;;5016276;28;20966;-70
2023/01/12 12:45:15;;;;;;;1.30;1.00;;;9.10;99.90;;;;;;5026987;28;20477;-70
2023/01/12 12:46:20;;;;;;;1.97;1.40;;;9.10;99.90;;;;;;5019071;28;20966;-70
2023/01/12 12:48:54;;;;;;;1.10;1.00;;;9.20;99.90;;;;;;5023137;28;20503;-71
2023/01/12 12:51:24;;;;;;;1.83;1.17;;;9.20;99.90;;;;;;5027097;28;20912;-70
2023/01/12 12:53:53;;;;;;;3.77;1.27;;;9.20;99.90;;;;;;5022873;28;20466;-71
2023/01/12 12:56:22;;;;;;;2.93;1.30;;;9.20;99.90;;;;;;5019436;28;20465;-70
2023/01/12 12:58:50;;;;;;;1.30;1.20;;;9.20;99.90;;;;;;5017615;28;20458;-71
2023/01/12 13:01:54;;;;;;;1.60;1.50;;;9.20;99.90;;;;;;5020232;28;20466;-70
2023/01/12 13:04:58;;;;;;;1.33;1.20;;;9.20;99.90;;;;;;5023062;28;20973;-71
2023/01/12 13:07:26;;;;;;;1.77;1.20;;;9.20;99.90;;;;;;5019339;28;20456;-70
2023/01/12 13:10:03;;;;;;;1.50;1.40;;;9.10;99.90;;;;;;5018301;28;20501;-71
2023/01/12 13:12:32;;;;;;;1.63;1.47;;;9.10;99.90;;;;;;5013274;28;20517;-71
2023/01/12 13:15:24;;;;;;;1.47;1.23;;;9.10;99.90;;;;;;5027792;28;20464;-70
2023/01/12 13:17:53;;;;;;;2.90;1.50;;;9.20;99.90;;;;;;5020716;28;20458;-71
2023/01/12 13:21:01;;;;;;;1.80;1.50;;;9.20;99.90;;;;;;5019036;28;21015;-70
2023/01/12 13:24:10;;;;;;;2.07;1.97;;;9.20;99.90;;;;;;5021110;28;20458;-72
2023/01/12 13:26:41;;;;;;;4.07;2.30;;;9.20;99.90;;;;;;5027451;28;20988;-70
2023/01/12 13:29:37;;;;;;;2.37;2.17;;;9.20;99.90;;;;;;5029973;28;20482;-69
2023/01/12 13:32:33;;;;;;;3.33;1.97;;;9.20;99.90;;;;;;5029371;28;20493;-69
2023/01/12 13:34:59;;;;;;;1.73;1.40;;;9.20;99.90;;;;;;5026332;28;20446;-70
2023/01/12 13:37:44;;;;;;;2.10;1.90;;;9.20;99.90;;;;;;5031334;28;20450;-70
2023/01/12 13:40:18;;;;;;;6.17;2.00;;;9.30;99.90;;;;;;5023533;28;20477;-69
2023/01/12 13:45:35;;;;;;;1.80;1.30;;;9.30;99.90;;;;;;5017236;28;20568;-70
2023/01/12 13:48:05;;;;;;;1.90;1.80;;;9.30;99.90;;;;;;5031723;28;20473;-70
2023/01/12 13:50:34;;;;;;;2.43;1.57;;;9.30;99.90;;;;;;5028955;28;20531;-69
2023/01/12 13:53:02;;;;;;;1.80;1.70;;;9.30;99.90;;;;;;5024108;28;20454;-69
2023/01/12 13:55:31;;;;;;;1.60;1.47;;;9.30;99.90;;;;;;5024681;28;20941;-69